M I D A S
Marine Information and Data Acquisition System
Tripno 2289 of the Zeeleeuw from 2012-04-12 07:18:30 to 2012-04-12 14:09:51
Back to CruiseResearch ActivitiesStationsMapUnderway DataData graphs

EquipmentUnitsComment
TimeDGPSUTC
LatitudeDGPSDM.mWGS84
LongitudeDGPSDM.mWGS84
TemperatureSBE03/SBE38deg celciusITS90
ConductivitySBE21S/mITS90
SalinitySBE21 Practical Salinity Units
ChlorophylAChelsea fluorimeterg/lCalibrated in Aceton
Missing or incorrect values are displayed as -999
Sea surface data collected by the RV Zeeleeuw from 2012-04-12 06:46:42 to 2012-04-12 14:20:17
Time Latitude Longitude Temperature Conductivity Salinity ChlorophylA
2012-04-12 06:47:47 51°13.637 2°56.021 16.367 4.518433 31.559832 -2.458615
2012-04-12 06:48:47 51°13.637 2°56.023 16.3837 4.518433 31.559832 -2.458615
2012-04-12 06:49:47 51°13.636 2°56.023 16.3831 4.518329 31.559022 -2.458615
2012-04-12 06:50:47 51°13.636 2°56.022 16.3969 4.518225 31.558767 -2.458615
2012-04-12 06:51:47 51°13.635 2°56.021 16.3929 4.518225 31.558767 -2.458615
2012-04-12 06:52:48 51°13.636 2°56.021 16.394 4.518121 31.557957 -2.458615
2012-04-12 06:53:47 51°13.635 2°56.021 16.3992 4.518121 31.559066 -2.458615
2012-04-12 06:54:47 51°13.635 2°56.021 16.394 4.518018 31.55881 -2.458615
2012-04-12 06:55:47 51°13.636 2°56.021 16.3938 4.517914 31.558555 -2.458615
2012-04-12 06:56:48 51°13.636 2°56.02 16.4017 4.51781 31.558299 -2.458615
2012-04-12 06:57:47 51°13.635 2°56.022 16.4104 4.517706 31.558598 -2.458615
2012-04-12 06:58:47 51°13.636 2°56.021 16.4005 4.517603 31.557788 -2.458615
2012-04-12 06:59:47 51°13.636 2°56.02 16.411 4.517499 31.558087 -2.458615
2012-04-12 07:00:47 51°13.636 2°56.02 16.4183 4.517292 31.557022 -2.458615
2012-04-12 07:01:47 51°13.636 2°56.02 16.4193 4.517292 31.557576 -2.458615
2012-04-12 07:02:47 51°13.636 2°56.02 16.4199 4.517084 31.557065 -2.458615
2012-04-12 07:03:48 51°13.635 2°56.021 16.4209 4.51698 31.55681 -2.458615
2012-04-12 07:04:47 51°13.636 2°56.02 16.42 4.516773 31.556299 -2.458615
2012-04-12 07:05:48 51°13.636 2°56.02 16.4237 4.516669 31.556598 -2.458615
2012-04-12 07:06:48 51°13.636 2°56.02 16.4288 4.516462 31.556641 -2.458615
2012-04-12 07:07:48 51°13.636 2°56.02 16.4402 4.516358 31.556386 -2.458615
2012-04-12 07:08:48 51°13.636 2°56.02 16.4407 4.516047 31.555619 -2.458615
2012-04-12 07:09:47 51°13.636 2°56.02 16.4439 4.515943 31.556473 -2.458615
2012-04-12 07:10:48 51°13.636 2°56.019 16.4458 4.515736 31.555962 -2.458615
2012-04-12 07:11:48 51°13.636 2°56.019 16.4461 4.515424 31.555195 -2.458615
2012-04-12 07:12:48 51°13.636 2°56.019 16.4472 4.515217 31.555239 -2.458615
2012-04-12 07:13:47 51°13.638 2°56.019 16.4552 4.51501 31.555283 -2.458615
2012-04-12 07:14:47 51°13.638 2°56.018 16.464 4.514802 31.555326 -2.458615
2012-04-12 07:15:47 51°13.638 2°56.019 16.47 4.514491 31.55567 -2.458615
2012-04-12 07:16:47 51°13.636 2°56.019 16.4771 4.514076 31.554092 -2.458615
2012-04-12 07:17:48 51°13.637 2°56.007 16.3718 4.513454 31.550338 -2.458615
2012-04-12 07:18:47 51°13.65 2°55.947 16.4468 4.513246 31.550937 -2.458615
2012-04-12 07:19:48 51°13.676 2°55.858 16.461 4.513039 31.550981 -2.458615
2012-04-12 07:20:47 51°13.721 2°55.763 16.474 4.512624 31.549958 -2.458615
2012-04-12 07:21:48 51°13.779 2°55.674 16.4727 4.512831 31.55269 -2.458615
2012-04-12 07:22:47 51°13.849 2°55.621 16.4867 4.512416 31.551112 -2.458615
2012-04-12 07:23:48 51°13.926 2°55.611 16.5073 4.512105 31.551456 -2.458615
2012-04-12 07:24:47 51°13.972 2°55.641 16.4934 4.511587 31.549622 -2.458615
2012-04-12 07:25:47 51°13.983 2°55.629 15.9232 4.511379 31.548555 -2.458615
2012-04-12 07:26:48 51°14.028 2°55.541 16.3434 4.511275 31.551076 -2.458615
2012-04-12 07:27:47 51°14.139 2°55.418 16.1402 4.510757 31.547021 -2.458615
2012-04-12 07:28:47 51°14.281 2°55.287 16.2091 4.510446 31.549031 -2.458615
2012-04-12 07:29:47 51°14.438 2°55.151 16.1849 4.510653 31.552875 -2.458615
2012-04-12 07:30:46 51°14.599 2°54.997 16.0983 4.510134 31.549375 -2.458615
2012-04-12 07:31:44 51°14.759 2°54.801 16.1193 4.508682 31.544684 -2.458615
2012-04-12 07:32:44 51°14.924 2°54.589 16.123 4.50889 31.545751 -2.458615
2012-04-12 07:33:43 51°15.085 2°54.381 16.0845 4.509201 31.555965 -2.458615
2012-04-12 07:34:44 51°15.253 2°54.179 16.0068 4.507541 31.54187 -2.458615
2012-04-12 07:35:44 51°15.419 2°53.993 16.1072 4.508267 31.552553 -2.458615
2012-04-12 07:36:42 51°15.579 2°53.812 16.0746 4.507749 31.55183 -2.458615
2012-04-12 07:37:44 51°15.738 2°53.623 16.1148 4.50723 31.549996 -2.458615
2012-04-12 07:38:44 51°15.85 2°53.489 16.2068 4.505778 31.546972 -2.458615
2012-04-12 07:39:44 51°15.922 2°53.411 16.2028 4.505778 31.547528 -2.458615
2012-04-12 07:40:44 51°15.984 2°53.372 16.2084 4.505778 31.550865 -2.458615
2012-04-12 07:41:44 51°16.054 2°53.336 16.1841 4.504533 31.544459 -2.458615
2012-04-12 07:42:43 51°16.135 2°53.285 16.1771 4.503703 31.540187 -2.458615
2012-04-12 07:43:44 51°16.218 2°53.218 16.1518 4.503807 31.547119 -2.458615
2012-04-12 07:44:44 51°16.301 2°53.159 16.1696 4.503185 31.543915 -2.458615
2012-04-12 07:45:44 51°16.384 2°53.11 16.1618 4.502459 31.545464 -2.458615
2012-04-12 07:46:44 51°16.479 2°53.051 16.1334 4.50194 31.543071 -2.458615
2012-04-12 07:47:44 51°16.581 2°52.982 16.177 4.501733 31.543673 -2.458615
2012-04-12 07:48:44 51°16.677 2°52.904 16.1683 4.501422 31.546803 -2.458615
2012-04-12 07:49:44 51°16.762 2°52.824 16.1666 4.500073 31.540693 -2.458615
2012-04-12 07:50:44 51°16.846 2°52.749 16.1427 4.500073 31.544035 -2.458615
2012-04-12 07:51:44 51°16.937 2°52.684 16.1157 4.49914 31.541732 -2.458615
2012-04-12 07:52:44 51°17.032 2°52.624 16.1424 4.498517 31.537969 -2.458615
2012-04-12 07:53:44 51°17.126 2°52.555 16.148 4.498102 31.536945 -2.458615
2012-04-12 07:54:44 51°17.217 2°52.476 16.107 4.497065 31.532714 -2.458615
2012-04-12 07:55:44 51°17.311 2°52.409 16.0977 4.496028 31.528483 -2.458615
2012-04-12 07:56:44 51°17.413 2°52.381 16.1202 4.495717 31.528272 -2.458615
2012-04-12 07:57:44 51°17.516 2°52.361 16.1303 4.495613 31.532473 -2.458615
2012-04-12 07:58:44 51°17.618 2°52.342 16.1338 4.494783 31.52931 -2.458615
2012-04-12 07:59:44 51°17.718 2°52.321 16.1099 4.494368 31.531073 -2.458615
2012-04-12 08:00:44 51°17.819 2°52.309 16.1241 4.493435 31.525981 -2.458615
2012-04-12 08:01:44 51°17.922 2°52.302 16.1422 4.493539 31.530697 -2.458615
2012-04-12 08:02:44 51°18.022 2°52.28 16.1642 4.492813 31.528905 -2.458615
2012-04-12 08:03:44 51°18.123 2°52.256 16.1459 4.492294 31.529297 -2.458615
2012-04-12 08:04:44 51°18.225 2°52.236 16.1551 4.492398 31.532342 -2.458615
2012-04-12 08:05:44 51°18.327 2°52.223 16.1185 4.491257 31.530641 -2.458615
2012-04-12 08:06:44 51°18.429 2°52.214 16.108 4.490531 31.527733 -2.458615
2012-04-12 08:07:44 51°18.531 2°52.196 16.1625 4.489908 31.528428 -2.458615
2012-04-12 08:08:44 51°18.632 2°52.17 16.1415 4.489079 31.526938 -2.458615
2012-04-12 08:09:44 51°18.733 2°52.15 16.161 4.489079 31.531404 -2.458615
2012-04-12 08:10:44 51°18.835 2°52.139 16.1573 4.487834 31.526655 -2.458615
2012-04-12 08:11:44 51°18.936 2°52.128 16.1714 4.487938 31.532496 -2.458615
2012-04-12 08:12:44 51°19.038 2°52.106 16.1559 4.486382 31.525862 -2.458615
2012-04-12 08:13:44 51°19.14 2°52.077 16.1606 4.485863 31.525698 -2.458615
2012-04-12 08:14:44 51°19.241 2°52.061 16.1661 4.485552 31.526047 -2.458615
2012-04-12 08:15:44 51°19.341 2°52.052 16.1677 4.484826 31.525371 -2.458615
2012-04-12 08:16:44 51°19.44 2°52.032 16.1748 4.484722 31.530146 -2.458615
2012-04-12 08:17:44 51°19.538 2°52.009 16.1688 4.483996 31.528353 -2.458615
2012-04-12 08:18:44 51°19.635 2°51.991 16.157 4.483374 31.526816 -2.458615
2012-04-12 08:19:44 51°19.732 2°51.979 16.1673 4.482441 31.522274 -2.458615
2012-04-12 08:20:44 51°19.829 2°51.973 16.1927 4.482544 31.527563 -2.458615
2012-04-12 08:21:44 51°19.926 2°51.96 16.1987 4.4813 31.523929 -2.458615
2012-04-12 08:22:44 51°20.023 2°51.934 16.1782 4.480677 31.522951 -2.458615
2012-04-12 08:23:44 51°20.121 2°51.911 16.1849 4.47964 31.519829 -2.458615
2012-04-12 08:24:44 51°20.218 2°51.898 16.2054 4.479122 31.521346 -2.458615
2012-04-12 08:25:44 51°20.316 2°51.885 16.2313 4.479329 31.527455 -2.458615
2012-04-12 08:26:44 51°20.408 2°51.831 16.2423 4.478499 31.524286 -2.458615
2012-04-12 08:27:44 51°20.485 2°51.73 16.2386 4.477047 31.517339 -2.458615
2012-04-12 08:28:44 51°20.537 2°51.59 16.2383 4.477151 31.522075 -2.458615
2012-04-12 08:29:44 51°20.564 2°51.43 16.1859 4.475388 31.512678 -2.458615
2012-04-12 08:30:44 51°20.556 2°51.265 16.1783 4.474973 31.516132 -2.458615
2012-04-12 08:31:44 51°20.54 2°51.099 16.2219 4.474662 31.516483 -2.458615
2012-04-12 08:32:44 51°20.529 2°50.936 16.196 4.474454 31.519332 -2.458615
2012-04-12 08:33:44 51°20.521 2°50.778 16.2439 4.474039 31.519988 -2.458615
2012-04-12 08:34:44 51°20.516 2°50.62 16.2122 4.47321 31.517377 -2.458615
2012-04-12 08:35:44 51°20.516 2°50.462 16.2424 4.472899 31.517729 -2.458615
2012-04-12 08:36:44 51°20.515 2°50.304 16.2384 4.471965 31.514861 -2.458615
2012-04-12 08:37:44 51°20.515 2°50.145 16.255 4.471032 31.511993 -2.458615
2012-04-12 08:38:44 51°20.51 2°49.985 16.2587 4.47072 31.512906 -2.458615
2012-04-12 08:39:44 51°20.502 2°49.824 16.2416 4.469891 31.510293 -2.458615
2012-04-12 08:40:44 51°20.501 2°49.661 16.2712 4.469891 31.51478 -2.458615
2012-04-12 08:41:44 51°20.5 2°49.501 16.2796 4.469891 31.519268 -2.458615
2012-04-12 08:42:44 51°20.502 2°49.34 16.2759 4.469061 31.514412 -2.458615
2012-04-12 08:43:44 51°20.503 2°49.179 16.2672 4.46792 31.509908 -2.458615
2012-04-12 08:44:44 51°20.496 2°49.018 16.2655 4.467713 31.5122 -2.458615
2012-04-12 08:45:44 51°20.49 2°48.857 16.2778 4.466883 31.507904 -2.458615
2012-04-12 08:46:44 51°20.49 2°48.694 16.307 4.466883 31.511832 -2.458615
2012-04-12 08:47:44 51°20.486 2°48.532 16.3062 4.466053 31.508658 -2.458615
2012-04-12 08:48:44 51°20.479 2°48.373 16.3149 4.465535 31.511305 -2.458615
2012-04-12 08:49:44 51°20.477 2°48.216 16.3051 4.465224 31.512782 -2.458615
2012-04-12 08:50:44 51°20.471 2°48.057 16.3101 4.464912 31.51089 -2.458615
2012-04-12 08:51:44 51°20.46 2°47.899 16.3213 4.464394 31.510169 -2.458615
2012-04-12 08:52:44 51°20.46 2°47.74 16.3193 4.463875 31.511695 -2.458615
2012-04-12 08:53:44 51°20.475 2°47.585 16.3151 4.462942 31.507139 -2.458615
2012-04-12 08:54:44 51°20.49 2°47.427 16.3292 4.462216 31.505343 -2.458615
2012-04-12 08:55:44 51°20.502 2°47.267 16.3462 4.461697 31.504622 -2.458615
2012-04-12 08:56:44 51°20.51 2°47.104 16.3274 4.461075 31.504769 -2.458615
2012-04-12 08:57:44 51°20.514 2°46.94 16.352 4.461594 31.51111 -2.458615
2012-04-12 08:58:44 51°20.523 2°46.776 16.3484 4.460556 31.507421 -2.458615
2012-04-12 08:59:44 51°20.538 2°46.612 16.3565 4.459623 31.503987 -2.458615
2012-04-12 09:00:44 51°20.551 2°46.446 16.3791 4.459727 31.507617 -2.458615
2012-04-12 09:01:44 51°20.559 2°46.279 16.3743 4.458897 31.505002 -2.458615
2012-04-12 09:02:44 51°20.563 2°46.111 16.3929 4.458378 31.504282 -2.458615
2012-04-12 09:03:44 51°20.567 2°45.943 16.4224 4.458171 31.508269 -2.458615
2012-04-12 09:04:44 51°20.533 2°45.796 16.4041 4.457756 31.507243 -2.458615
2012-04-12 09:05:44 51°20.459 2°45.707 16.3817 4.45703 31.503758 -2.458615
2012-04-12 09:06:44 51°20.37 2°45.666 16.394 4.456926 31.506878 -2.458615
2012-04-12 09:07:44 51°20.277 2°45.65 16.4185 4.455889 31.502624 -2.458615
2012-04-12 09:08:44 51°20.19 2°45.665 16.404 4.455474 31.502723 -2.458615
2012-04-12 09:09:44 51°20.123 2°45.729 16.4237 4.454852 31.498931 -2.458615
2012-04-12 09:10:44 51°20.088 2°45.824 16.4305 4.454645 31.500669 -2.458615
2012-04-12 09:11:44 51°20.085 2°45.932 16.3965 4.45423 31.500205 -2.458615
2012-04-12 09:12:44 51°20.086 2°46.045 16.4356 4.453919 31.501125 -2.458615
2012-04-12 09:13:44 51°20.077 2°46.16 16.4094 4.453296 31.500711 -2.458615
2012-04-12 09:14:44 51°20.069 2°46.276 16.4448 4.453193 31.501581 -2.458615
2012-04-12 09:15:44 51°20.065 2°46.393 16.4535 4.452674 31.50086 -2.458615
2012-04-12 09:16:44 51°20.064 2°46.521 16.4462 4.452155 31.49845 -2.458615
2012-04-12 09:17:44 51°20.063 2°46.658 16.4483 4.451429 31.494963 -2.458615
2012-04-12 09:18:44 51°20.047 2°46.797 16.4495 4.450911 31.496496 -2.458615
2012-04-12 09:19:44 51°20.029 2°46.935 16.4542 4.4506 31.496289 -2.458615
2012-04-12 09:20:44 51°20.025 2°47.075 16.4609 4.450703 31.497673 -2.458615
2012-04-12 09:21:44 51°20.025 2°47.214 16.4763 4.450185 31.497516 -2.458615
2012-04-12 09:22:44 51°20.02 2°47.355 16.4704 4.450081 31.499514 -2.458615
2012-04-12 09:23:44 51°20.013 2°47.493 16.4835 4.449355 31.49828 -2.458615
2012-04-12 09:24:44 51°20.004 2°47.641 16.4986 4.448733 31.493921 -2.458615
2012-04-12 09:25:44 51°20.001 2°47.792 16.4972 4.448422 31.494842 -2.458615
2012-04-12 09:26:44 51°20.002 2°47.943 16.5042 4.448318 31.495713 -2.458615
2012-04-12 09:27:44 51°19.998 2°48.093 16.5115 4.447903 31.496377 -2.458615
2012-04-12 09:28:44 51°19.986 2°48.243 16.5462 4.447385 31.494529 -2.458615
2012-04-12 09:29:44 51°19.979 2°48.392 16.5418 4.44697 31.49463 -2.458615
2012-04-12 09:30:44 51°19.979 2°48.541 16.5265 4.446762 31.49468 -2.458615
2012-04-12 09:31:44 51°19.976 2°48.691 16.506 4.446348 31.494217 -2.458615
2012-04-12 09:32:44 51°19.964 2°48.842 16.5479 4.445829 31.492933 -2.458615
2012-04-12 09:33:44 51°19.956 2°48.992 16.5576 4.445622 31.492419 -2.458615
2012-04-12 09:34:44 51°19.956 2°49.143 16.5305 4.445207 31.491392 -2.458615
2012-04-12 09:35:44 51°19.951 2°49.296 16.5764 4.444999 31.493699 -2.458615
2012-04-12 09:36:44 51°19.94 2°49.449 16.5696 4.444481 31.493544 -2.458615
2012-04-12 09:37:44 51°19.929 2°49.601 16.5829 4.44417 31.493338 -2.458615
2012-04-12 09:38:44 51°19.922 2°49.753 16.6064 4.443962 31.494518 -2.458615
2012-04-12 09:39:44 51°19.917 2°49.904 16.6193 4.44334 31.491283 -2.458615
2012-04-12 09:40:44 51°19.912 2°50.055 16.5961 4.443133 31.492463 -2.458615
2012-04-12 09:41:44 51°19.896 2°50.205 16.6523 4.442821 31.493386 -2.458615
2012-04-12 09:42:44 51°19.887 2°50.348 16.6349 4.442303 31.491537 -2.458615
2012-04-12 09:43:44 51°19.884 2°50.464 16.6405 4.441992 31.491331 -2.458615
2012-04-12 09:44:44 51°19.88 2°50.57 16.6309 4.441473 31.490611 -2.458615
2012-04-12 09:45:44 51°19.87 2°50.671 16.6721 4.441266 31.490098 -2.458615
2012-04-12 09:46:44 51°19.859 2°50.769 16.67 4.440955 31.491021 -2.458615
2012-04-12 09:47:44 51°19.851 2°50.867 16.6933 4.440436 31.489172 -2.458615
2012-04-12 09:48:44 51°19.849 2°50.964 16.6721 4.440436 31.490302 -2.458615
2012-04-12 09:49:44 51°19.846 2°51.063 16.6481 4.440021 31.489839 -2.458615
2012-04-12 09:50:44 51°19.835 2°51.161 16.6747 4.439503 31.488554 -2.458615
2012-04-12 09:51:44 51°19.822 2°51.259 16.7055 4.439503 31.49025 -2.458615
2012-04-12 09:52:44 51°19.813 2°51.358 16.6928 4.439192 31.490044 -2.458615
2012-04-12 09:53:44 51°19.808 2°51.458 16.673 4.438673 31.487629 -2.458615
2012-04-12 09:54:44 51°19.804 2°51.557 16.7239 4.438466 31.490507 -2.458615
2012-04-12 09:55:44 51°19.827 2°51.633 16.7139 4.438258 31.488297 -2.458615
2012-04-12 09:56:44 51°19.879 2°51.664 16.6841 4.437636 31.485624 -2.458615
2012-04-12 09:57:44 51°19.942 2°51.649 16.6721 4.437325 31.485419 -2.458615
2012-04-12 09:58:44 51°20.003 2°51.591 16.694 4.437428 31.489068 -2.458615
2012-04-12 09:59:44 51°20.054 2°51.492 16.7065 4.436806 31.48583 -2.458615
2012-04-12 10:00:44 51°20.084 2°51.361 16.6955 4.437117 31.489994 -2.458615
2012-04-12 10:01:44 51°20.103 2°51.213 16.7091 4.437014 31.494262 -2.458615
2012-04-12 10:02:44 51°20.113 2°51.056 16.668 4.436184 31.490509 -2.458615
2012-04-12 10:03:44 51°20.118 2°50.898 16.6906 4.435562 31.488968 -2.458615
2012-04-12 10:04:44 51°20.124 2°50.739 16.6935 4.435562 31.490665 -2.458615
2012-04-12 10:05:44 51°20.135 2°50.581 16.6968 4.434836 31.4883 -2.458615
2012-04-12 10:06:44 51°20.15 2°50.426 16.7174 4.434628 31.489484 -2.458615
2012-04-12 10:07:44 51°20.154 2°50.268 16.7101 4.434317 31.489279 -2.458615
2012-04-12 10:08:44 51°20.146 2°50.109 16.7167 4.434317 31.490978 -2.458615
2012-04-12 10:09:44 51°20.138 2°49.951 16.7253 4.433695 31.488303 -2.458615
2012-04-12 10:10:44 51°20.133 2°49.792 16.7242 4.43328 31.487842 -2.458615
2012-04-12 10:11:44 51°20.133 2°49.638 16.7188 4.432865 31.487946 -2.458615
2012-04-12 10:12:44 51°20.133 2°49.485 16.733 4.43245 31.486918 -2.458615
2012-04-12 10:13:44 51°20.128 2°49.331 16.7459 4.432347 31.487227 -2.458615
2012-04-12 10:14:44 51°20.122 2°49.177 16.743 4.432243 31.48697 -2.458615
2012-04-12 10:15:44 51°20.122 2°49.022 16.7588 4.432139 31.488978 -2.458615
2012-04-12 10:16:44 51°20.122 2°48.868 16.7609 4.431517 31.486304 -2.458615
2012-04-12 10:17:44 51°20.12 2°48.713 16.798 4.431413 31.487179 -2.458615
2012-04-12 10:18:44 51°20.117 2°48.556 16.7851 4.431102 31.488108 -2.458615
2012-04-12 10:19:44 51°20.114 2°48.399 16.7831 4.430791 31.487337 -2.458615
2012-04-12 10:20:44 51°20.114 2°48.242 16.7898 4.430791 31.489036 -2.458615
2012-04-12 10:21:44 51°20.118 2°48.085 16.7797 4.430169 31.486361 -2.458615
2012-04-12 10:22:44 51°20.117 2°47.926 16.7827 4.430065 31.487804 -2.458615
2012-04-12 10:23:44 51°20.112 2°47.767 16.784 4.429547 31.485385 -2.458615
2012-04-12 10:24:44 51°20.106 2°47.607 16.8097 4.429443 31.486828 -2.458615
2012-04-12 10:25:44 51°20.105 2°47.448 16.8136 4.428821 31.484719 -2.458615
2012-04-12 10:26:44 51°20.108 2°47.29 16.8315 4.428924 31.487811 -2.458615
2012-04-12 10:27:44 51°20.11 2°47.13 16.8163 4.428821 31.48812 -2.458615
2012-04-12 10:28:44 51°20.107 2°46.971 16.7941 4.428406 31.487659 -2.458615
2012-04-12 10:29:44 51°20.101 2°46.811 16.8174 4.428199 31.488846 -2.458615
2012-04-12 10:30:44 51°20.099 2°46.65 16.7871 4.427369 31.483388 -2.458615
2012-04-12 10:31:44 51°20.103 2°46.49 16.8066 4.427473 31.48648 -2.458615
2012-04-12 10:32:44 51°20.109 2°46.329 16.804 4.427161 31.484574 -2.458615
2012-04-12 10:33:44 51°20.111 2°46.17 16.7931 4.42685 31.485504 -2.458615
2012-04-12 10:34:44 51°20.108 2°46.007 16.8246 4.426954 31.485762 -2.458615
2012-04-12 10:35:44 51°20.105 2°45.844 16.8195 4.426643 31.486125 -2.458615
2012-04-12 10:36:44 51°20.107 2°45.68 16.7881 4.426228 31.483962 -2.458615
2012-04-12 10:37:44 51°20.114 2°45.517 16.7982 4.426228 31.486231 -2.458615
2012-04-12 10:38:44 51°20.117 2°45.354 16.8064 4.425709 31.483811 -2.458615
2012-04-12 10:39:44 51°20.128 2°45.199 16.8132 4.42571 31.48608 -2.458615
2012-04-12 10:40:44 51°20.16 2°45.065 16.8244 4.425398 31.484742 -2.458615
2012-04-12 10:41:44 51°20.214 2°44.981 16.839 4.425398 31.487011 -2.458615
2012-04-12 10:42:44 51°20.275 2°44.948 16.8016 4.424984 31.484848 -2.458615
2012-04-12 10:43:44 51°20.329 2°44.968 16.8329 4.424984 31.488821 -2.458615
2012-04-12 10:44:44 51°20.362 2°45.031 16.8312 4.424672 31.48805 -2.458615
2012-04-12 10:45:44 51°20.366 2°45.117 16.8328 4.42405 31.486507 -2.458615
2012-04-12 10:46:44 51°20.367 2°45.208 16.8685 4.424465 31.490374 -2.458615
2012-04-12 10:47:44 51°20.373 2°45.3 16.8463 4.42405 31.489914 -2.458615
2012-04-12 10:48:44 51°20.376 2°45.394 16.8603 4.423532 31.487493 -2.458615
2012-04-12 10:49:44 51°20.38 2°45.488 16.8638 4.423428 31.488371 -2.458615
2012-04-12 10:50:44 51°20.381 2°45.582 16.8636 4.423013 31.487911 -2.458615
2012-04-12 10:51:44 51°20.381 2°45.675 16.8704 4.422598 31.485179 -2.458615
2012-04-12 10:52:44 51°20.385 2°45.768 16.8484 4.422287 31.484408 -2.458615
2012-04-12 10:53:44 51°20.394 2°45.858 16.8705 4.422287 31.486111 -2.458615
2012-04-12 10:54:44 51°20.401 2°45.95 16.8781 4.422287 31.487815 -2.458615
2012-04-12 10:55:44 51°20.394 2°46.043 16.8452 4.421769 31.48653 -2.458615
2012-04-12 10:56:44 51°20.384 2°46.131 16.8736 4.421561 31.483743 -2.458615
2012-04-12 10:57:44 51°20.384 2°46.219 16.8539 4.42125 31.482972 -2.458615
2012-04-12 10:58:44 51°20.383 2°46.309 16.8698 4.421561 31.48772 -2.458615
2012-04-12 10:59:44 51°20.373 2°46.401 16.8586 4.421146 31.486692 -2.458615
2012-04-12 11:00:44 51°20.365 2°46.493 16.8854 4.421147 31.48726 -2.458615
2012-04-12 11:01:44 51°20.361 2°46.585 16.8967 4.420835 31.486489 -2.458615
2012-04-12 11:02:44 51°20.36 2°46.676 16.8946 4.420732 31.4868 -2.458615
2012-04-12 11:03:44 51°20.356 2°46.767 16.8655 4.420109 31.482984 -2.458615
2012-04-12 11:04:44 51°20.348 2°46.86 16.916 4.420732 31.49021 -2.458615
2012-04-12 11:05:44 51°20.342 2°46.952 16.9231 4.420421 31.487165 -2.458615
2012-04-12 11:06:44 51°20.34 2°47.042 16.9122 4.420109 31.486394 -2.458615
2012-04-12 11:07:44 51°20.342 2°47.133 16.9242 4.420006 31.486705 -2.458615
2012-04-12 11:08:44 51°20.339 2°47.226 16.9347 4.420109 31.488667 -2.458615
2012-04-12 11:09:44 51°20.33 2°47.319 16.9686 4.42011 31.490373 -2.458615
2012-04-12 11:10:44 51°20.323 2°47.413 16.9449 4.419902 31.488722 -2.458615
2012-04-12 11:11:44 51°20.318 2°47.506 16.9314 4.419591 31.486813 -2.458615
2012-04-12 11:12:44 51°20.318 2°47.597 16.9595 4.419695 31.489913 -2.458615
2012-04-12 11:13:44 51°20.316 2°47.689 16.9773 4.419695 31.49105 -2.458615
2012-04-12 11:14:44 51°20.308 2°47.783 16.9484 4.419176 31.489765 -2.458615
2012-04-12 11:15:44 51°20.298 2°47.876 16.9902 4.41928 31.490022 -2.458615
2012-04-12 11:16:44 51°20.293 2°47.968 16.9691 4.418969 31.490388 -2.458615
2012-04-12 11:17:44 51°20.292 2°48.059 16.9734 4.418969 31.490388 -2.458615
2012-04-12 11:18:44 51°20.29 2°48.151 16.9902 4.419073 31.492352 -2.458615
2012-04-12 11:19:44 51°20.282 2°48.244 16.9756 4.418658 31.489617 -2.458615
2012-04-12 11:20:44 51°20.271 2°48.338 16.984 4.418865 31.492406 -2.458615
2012-04-12 11:21:44 51°20.266 2°48.43 16.9831 4.418347 31.488846 -2.458615
2012-04-12 11:22:44 51°20.264 2°48.52 16.9981 4.418969 31.494939 -2.458615
2012-04-12 11:23:44 51°20.258 2°48.612 17.0051 4.418865 31.494682 -2.458615
2012-04-12 11:24:44 51°20.253 2°48.704 16.9855 4.418243 31.489726 -2.458615
2012-04-12 11:25:44 51°20.256 2°48.792 16.968 4.418035 31.488643 -2.458615
2012-04-12 11:26:44 51°20.264 2°48.879 16.9644 4.418139 31.490607 -2.458615
2012-04-12 11:27:44 51°20.268 2°48.969 16.9762 4.418035 31.491488 -2.458615
2012-04-12 11:28:44 51°20.267 2°49.062 16.9982 4.418243 31.494847 -2.458615
2012-04-12 11:29:44 51°20.268 2°49.154 16.9877 4.417828 31.49268 -2.458615
2012-04-12 11:30:44 51°20.272 2°49.245 17.0109 4.417828 31.494388 -2.458615
2012-04-12 11:31:44 51°20.28 2°49.331 16.9603 4.417724 31.496976 -2.458615
2012-04-12 11:32:44 51°20.285 2°49.418 16.9813 4.41731 31.493672 -2.458615
2012-04-12 11:33:44 51°20.283 2°49.507 17.0077 4.417413 31.497913 -2.458615
2012-04-12 11:34:44 51°20.282 2°49.596 16.9488 4.417206 31.495691 -2.458615
2012-04-12 11:35:44 51°20.287 2°49.682 17.0103 4.417206 31.496261 -2.458615
2012-04-12 11:36:44 51°20.293 2°49.769 16.9805 4.417102 31.496004 -2.458615
2012-04-12 11:37:44 51°20.295 2°49.857 17.0168 4.416895 31.497198 -2.458615
2012-04-12 11:38:44 51°20.292 2°49.947 17.0345 4.417206 31.500815 -2.458615
2012-04-12 11:39:44 51°20.293 2°50.035 17.0303 4.416687 31.497253 -2.458615
2012-04-12 11:40:44 51°20.299 2°50.12 17.0533 4.416999 31.500302 -2.458615
2012-04-12 11:41:44 51°20.305 2°50.205 17.0143 4.416065 31.494572 -2.458615
2012-04-12 11:42:44 51°20.306 2°50.293 17.0331 4.41648 31.499017 -2.458615
2012-04-12 11:43:44 51°20.305 2°50.381 17.0233 4.415961 31.496023 -2.458615
2012-04-12 11:44:44 51°20.306 2°50.469 17.0598 4.416273 31.500212 -2.458615
2012-04-12 11:45:44 51°20.314 2°50.557 17.0539 4.416065 31.497989 -2.458615
2012-04-12 11:46:44 51°20.322 2°50.645 17.0622 4.416065 31.500267 -2.458615
2012-04-12 11:47:44 51°20.324 2°50.736 17.0695 4.415962 31.50058 -2.458615
2012-04-12 11:48:44 51°20.324 2°50.828 17.0758 4.415858 31.500323 -2.458615
2012-04-12 11:49:44 51°20.331 2°50.918 17.1001 4.415962 31.502859 -2.458615
2012-04-12 11:50:44 51°20.34 2°51.008 17.1024 4.415858 31.503172 -2.458615
2012-04-12 11:51:44 51°20.346 2°51.1 17.076 4.415547 31.502401 -2.458615
2012-04-12 11:52:44 51°20.347 2°51.195 17.1083 4.415236 31.50106 -2.458615
2012-04-12 11:53:44 51°20.347 2°51.292 17.1095 4.415339 31.502457 -2.458615
2012-04-12 11:54:44 51°20.339 2°51.388 17.0799 4.414925 31.502569 -2.458615
2012-04-12 11:55:44 51°20.291 2°51.468 17.127 4.414717 31.502625 -2.458615
2012-04-12 11:56:44 51°20.218 2°51.524 17.1378 4.415443 31.507843 -2.458615
2012-04-12 11:57:44 51°20.135 2°51.562 17.1114 4.415132 31.507073 -2.458615
2012-04-12 11:58:44 51°20.042 2°51.573 17.084 4.414925 31.505419 -2.458615
2012-04-12 11:59:44 51°19.95 2°51.522 17.079 4.414302 31.502737 -2.458615
2012-04-12 12:00:44 51°19.876 2°51.414 17.1317 4.414821 31.505732 -2.458615
2012-04-12 12:01:44 51°19.809 2°51.288 17.1136 4.414406 31.502424 -2.458615
2012-04-12 12:02:44 51°19.749 2°51.152 17.1144 4.414199 31.50134 -2.458615
2012-04-12 12:03:44 51°19.708 2°51.005 17.1157 4.413991 31.500826 -2.458615
2012-04-12 12:04:44 51°19.666 2°50.857 17.0968 4.414199 31.50077 -2.458615
2012-04-12 12:05:44 51°19.633 2°50.708 17.1466 4.414095 31.504504 -2.458615
2012-04-12 12:06:44 51°19.618 2°50.557 17.161 4.414717 31.508326 -2.458615
2012-04-12 12:07:44 51°19.605 2°50.407 17.1147 4.413887 31.501709 -2.458615
2012-04-12 12:08:44 51°19.59 2°50.255 17.138 4.414095 31.502223 -2.458615
2012-04-12 12:09:44 51°19.57 2°50.104 17.1484 4.414302 31.504447 -2.458615
2012-04-12 12:10:44 51°19.546 2°49.953 17.1723 4.415132 31.513345 -2.458615
2012-04-12 12:11:44 51°19.525 2°49.802 17.1149 4.413576 31.503219 -2.458615
2012-04-12 12:12:44 51°19.512 2°49.649 17.1366 4.413991 31.504247 -2.458615
2012-04-12 12:13:44 51°19.496 2°49.496 17.1525 4.414199 31.507612 -2.458615
2012-04-12 12:14:44 51°19.474 2°49.342 17.1526 4.413991 31.505387 -2.458615
2012-04-12 12:15:44 51°19.452 2°49.187 17.1385 4.413888 31.50513 -2.458615
2012-04-12 12:16:44 51°19.439 2°49.032 17.157 4.413576 31.50493 -2.458615
2012-04-12 12:17:44 51°19.434 2°48.877 17.1933 4.414095 31.506784 -2.458615
2012-04-12 12:18:44 51°19.425 2°48.719 17.1635 4.41368 31.503476 -2.458615
2012-04-12 12:19:44 51°19.413 2°48.558 17.2012 4.413888 31.507411 -2.458615
2012-04-12 12:20:44 51°19.398 2°48.397 17.2039 4.414095 31.510206 -2.458615
2012-04-12 12:21:44 51°19.379 2°48.235 17.1926 4.413991 31.51052 -2.458615
2012-04-12 12:22:44 51°19.359 2°48.073 17.2257 4.414199 31.511604 -2.458615
2012-04-12 12:23:44 51°19.345 2°47.909 17.2285 4.414303 31.514142 -2.458615
2012-04-12 12:24:44 51°19.336 2°47.745 17.2029 4.413577 31.508352 -2.458615
2012-04-12 12:25:44 51°19.323 2°47.578 17.2327 4.41368 31.51032 -2.458615
2012-04-12 12:26:44 51°19.305 2°47.411 17.2122 4.413473 31.510377 -2.458615
2012-04-12 12:27:44 51°19.285 2°47.244 17.2385 4.413991 31.516225 -2.458615
2012-04-12 12:28:44 51°19.269 2°47.076 17.2755 4.41368 31.513172 -2.458615
2012-04-12 12:29:44 51°19.26 2°46.909 17.2744 4.413473 31.512659 -2.458615
2012-04-12 12:30:44 51°19.248 2°46.743 17.2538 4.413265 31.512716 -2.458615
2012-04-12 12:31:44 51°19.233 2°46.578 17.2824 4.413577 31.515198 -2.458615
2012-04-12 12:32:44 51°19.221 2°46.414 17.2964 4.414095 31.519906 -2.458615
2012-04-12 12:33:44 51°19.226 2°46.259 17.2898 4.413784 31.518565 -2.458615
2012-04-12 12:34:44 51°19.25 2°46.119 17.3088 4.414199 31.521875 -2.458615
2012-04-12 12:35:44 51°19.297 2°46.034 17.2737 4.413577 31.51691 -2.458615
2012-04-12 12:36:44 51°19.349 2°46.019 17.2834 4.413058 31.512773 -2.458615
2012-04-12 12:37:44 51°19.386 2°46.06 17.2587 4.413369 31.512402 -2.458615
2012-04-12 12:38:44 51°19.389 2°46.135 17.3092 4.41368 31.518879 -2.458615
2012-04-12 12:39:44 51°19.383 2°46.22 17.3026 4.413473 31.518366 -2.458615
2012-04-12 12:40:44 51°19.382 2°46.305 17.3202 4.413266 31.517281 -2.458615
2012-04-12 12:41:44 51°19.383 2°46.39 17.3028 4.413369 31.517538 -2.458615
2012-04-12 12:42:44 51°19.38 2°46.477 17.2828 4.413162 31.519308 -2.458615
2012-04-12 12:43:44 51°19.371 2°46.565 17.3162 4.413784 31.525416 -2.458615
2012-04-12 12:44:44 51°19.365 2°46.651 17.3168 4.413266 31.521848 -2.458615
2012-04-12 12:45:44 51°19.359 2°46.736 17.3217 4.412955 31.52222 -2.458615
2012-04-12 12:46:44 51°19.36 2°46.819 17.321 4.412955 31.521078 -2.458615
2012-04-12 12:47:44 51°19.356 2°46.904 17.3289 4.412851 31.523106 -2.458615
2012-04-12 12:48:44 51°19.348 2°46.99 17.3162 4.412643 31.523735 -2.458615
2012-04-12 12:49:44 51°19.341 2°47.076 17.344 4.412955 31.527361 -2.458615
2012-04-12 12:50:44 51°19.327 2°47.163 17.361 4.41254 31.524049 -2.458615
2012-04-12 12:51:44 51°19.305 2°47.253 17.3509 4.412125 31.523594 -2.458615
2012-04-12 12:52:44 51°19.284 2°47.342 17.3762 4.412021 31.522766 -2.458615
2012-04-12 12:53:44 51°19.266 2°47.431 17.3724 4.412229 31.526707 -2.458615
2012-04-12 12:54:44 51°19.253 2°47.521 17.378 4.412021 31.526194 -2.458615
2012-04-12 12:55:44 51°19.239 2°47.612 17.3482 4.412125 31.526451 -2.458615
2012-04-12 12:56:44 51°19.219 2°47.705 17.3607 4.41171 31.524853 -2.458615
2012-04-12 12:57:44 51°19.197 2°47.797 17.3781 4.411918 31.527652 -2.458615
2012-04-12 12:58:44 51°19.188 2°47.887 17.4047 4.411918 31.52708 -2.458615
2012-04-12 12:59:44 51°19.191 2°47.975 17.3921 4.411606 31.522882 -2.458615
2012-04-12 13:00:44 51°19.192 2°48.066 17.3984 4.411814 31.524538 -2.458615
2012-04-12 13:01:44 51°19.188 2°48.16 17.4003 4.411606 31.524596 -2.458615
2012-04-12 13:02:44 51°19.181 2°48.256 17.4024 4.411399 31.524083 -2.458615
2012-04-12 13:03:44 51°19.176 2°48.353 17.4174 4.41171 31.524853 -2.458615
2012-04-12 13:04:44 51°19.178 2°48.448 17.4399 4.412021 31.52848 -2.458615
2012-04-12 13:05:44 51°19.181 2°48.544 17.422 4.411606 31.52631 -2.458615
2012-04-12 13:06:44 51°19.18 2°48.644 17.4229 4.411918 31.529938 -2.458615
2012-04-12 13:07:44 51°19.177 2°48.747 17.3994 4.411503 31.528911 -2.458615
2012-04-12 13:08:44 51°19.174 2°48.85 17.3991 4.411088 31.52617 -2.458615
2012-04-12 13:09:44 51°19.191 2°48.939 17.4326 4.41171 31.530568 -2.458615
2012-04-12 13:10:44 51°19.227 2°49.01 17.447 4.411607 31.531454 -2.458615
2012-04-12 13:11:44 51°19.278 2°49.046 17.4319 4.411607 31.531454 -2.458615
2012-04-12 13:12:44 51°19.337 2°49.038 17.4155 4.411295 31.528398 -2.458615
2012-04-12 13:13:44 51°19.394 2°48.988 17.4374 4.411607 31.533741 -2.458615
2012-04-12 13:14:44 51°19.438 2°48.896 17.4248 4.411192 31.532143 -2.458615
2012-04-12 13:15:44 51°19.466 2°48.77 17.3531 4.410881 31.529087 -2.458615
2012-04-12 13:16:44 51°19.508 2°48.663 17.4114 4.410984 31.535633 -2.458615
2012-04-12 13:17:44 51°19.563 2°48.603 17.4032 4.410466 31.532063 -2.458615
2012-04-12 13:18:44 51°19.61 2°48.622 17.404 4.410051 31.529893 -2.458615
2012-04-12 13:19:44 51°19.611 2°48.694 17.3816 4.409844 31.52938 -2.458615
2012-04-12 13:20:44 51°19.559 2°48.752 17.4381 4.409325 31.527525 -2.458615
2012-04-12 13:21:44 51°19.49 2°48.805 17.4437 4.410673 31.53658 -2.458615
2012-04-12 13:22:44 51°19.428 2°48.878 17.4201 4.409844 31.5351 -2.458615
2012-04-12 13:23:44 51°19.369 2°48.958 17.38 4.409118 31.525868 -2.458615
2012-04-12 13:24:44 51°19.308 2°49.041 17.393 4.409429 31.530641 -2.458615
2012-04-12 13:25:44 51°19.244 2°49.121 17.3797 4.409118 31.529299 -2.458615
2012-04-12 13:26:44 51°19.177 2°49.196 17.4379 4.410051 31.535041 -2.458615
2012-04-12 13:27:44 51°19.114 2°49.281 17.4299 4.40891 31.526498 -2.458615
2012-04-12 13:28:44 51°19.056 2°49.371 17.4095 4.409636 31.531154 -2.458615
2012-04-12 13:29:44 51°18.995 2°49.46 17.4343 4.409533 31.53147 -2.458615
2012-04-12 13:30:44 51°18.929 2°49.542 17.4142 4.409221 31.528412 -2.458615
2012-04-12 13:31:44 51°18.864 2°49.624 17.4384 4.409947 31.534212 -2.458615
2012-04-12 13:32:44 51°18.799 2°49.708 17.4551 4.409533 31.529754 -2.458615
2012-04-12 13:33:44 51°18.739 2°49.797 17.4291 4.409533 31.530326 -2.458615
2012-04-12 13:34:44 51°18.678 2°49.885 17.4541 4.40974 31.529695 -2.458615
2012-04-12 13:35:44 51°18.613 2°49.971 17.4405 4.409221 31.526696 -2.458615
2012-04-12 13:36:44 51°18.545 2°50.052 17.4624 4.409636 31.53001 -2.458615
2012-04-12 13:37:44 51°18.477 2°50.136 17.4672 4.40974 31.529123 -2.458615
2012-04-12 13:38:44 51°18.41 2°50.217 17.4626 4.409429 31.527209 -2.458615
2012-04-12 13:39:44 51°18.342 2°50.293 17.4901 4.410466 31.534351 -2.458615
2012-04-12 13:40:44 51°18.278 2°50.374 17.4644 4.410466 31.537211 -2.458615
2012-04-12 13:41:44 51°18.213 2°50.454 17.4807 4.410258 31.533266 -2.458615
2012-04-12 13:42:44 51°18.146 2°50.532 17.4784 4.410673 31.537724 -2.458615
2012-04-12 13:43:44 51°18.077 2°50.609 17.4734 4.410985 31.539637 -2.458615
2012-04-12 13:44:44 51°18.009 2°50.687 17.4888 4.409844 31.530523 -2.458615
2012-04-12 13:45:44 51°17.945 2°50.771 17.5166 4.410881 31.537665 -2.458615
2012-04-12 13:46:44 51°17.883 2°50.86 17.4803 4.410466 31.532635 -2.458615
2012-04-12 13:47:44 51°17.82 2°50.949 17.5005 4.410673 31.535436 -2.458615
2012-04-12 13:48:44 51°17.73 2°51.058 17.4401 4.410984 31.536205 -2.458615
2012-04-12 13:49:44 51°17.584 2°51.23 17.3316 4.411399 31.537231 -2.458615
2012-04-12 13:50:44 51°17.421 2°51.437 17.4286 4.413784 31.516853 -2.458615
2012-04-12 13:51:44 51°17.26 2°51.652 17.4129 4.414406 31.508125 -2.458615
2012-04-12 13:52:44 51°17.109 2°51.883 17.4634 4.414199 31.496781 -2.458615
2012-04-12 13:53:44 51°16.946 2°52.094 17.4131 4.415443 31.502714 -2.458615
2012-04-12 13:54:44 51°16.766 2°52.272 17.4678 4.415443 31.507843 -2.458615
2012-04-12 13:55:44 51°16.588 2°52.455 17.4873 4.415339 31.507586 -2.458615
2012-04-12 13:56:44 51°16.423 2°52.664 17.4973 4.415858 31.500893 -2.458615
2012-04-12 13:57:44 51°16.25 2°52.855 17.5174 4.415962 31.505708 -2.458615
2012-04-12 13:58:44 51°16.077 2°53.046 17.6473 4.415029 31.51594 -2.458615
2012-04-12 13:59:44 51°15.908 2°53.244 17.6555 4.415029 31.521075 -2.458615
2012-04-12 14:00:44 51°15.747 2°53.454 17.6345 4.41617 31.529605 -2.458615
2012-04-12 14:01:44 51°15.584 2°53.652 17.6323 4.415029 31.518222 -2.458615
2012-04-12 14:02:44 51°15.454 2°53.811 17.6725 4.415962 31.52795 -2.458615
2012-04-12 14:03:44 51°15.319 2°53.975 17.6678 4.414821 31.518279 -2.458615
2012-04-12 14:04:44 51°15.16 2°54.176 17.6586 4.415443 31.52096 -2.458615
2012-04-12 14:05:44 51°15.001 2°54.38 17.7442 4.417207 31.538449 -2.458615
2012-04-12 14:06:44 51°14.843 2°54.588 17.7639 4.415962 31.514258 -2.458615
2012-04-12 14:07:44 51°14.684 2°54.793 17.7611 4.41648 31.516682 -2.458615
2012-04-12 14:08:44 51°14.522 2°54.995 17.7692 4.417103 31.523355 -2.458615
2012-04-12 14:09:44 51°14.364 2°55.178 17.7834 4.416688 31.520617 -2.458615
2012-04-12 14:10:48 51°14.225 2°55.329 17.7803 4.416895 31.522842 -2.458615
2012-04-12 14:11:47 51°14.113 2°55.422 17.7752 4.416999 31.522528 -2.458615
2012-04-12 14:12:46 51°14.01 2°55.497 17.7763 4.417103 31.522214 -2.458615
2012-04-12 14:13:45 51°13.918 2°55.572 17.7953 4.417103 31.521644 -2.458615
2012-04-12 14:14:46 51°13.821 2°55.65 17.8052 4.417414 31.523555 -2.458615
2012-04-12 14:15:48 51°13.745 2°55.739 17.8173 4.417621 31.524068 -2.458615
2012-04-12 14:16:48 51°13.694 2°55.831 17.82 4.417829 31.524011 -2.458615
2012-04-12 14:17:48 51°13.658 2°55.916 17.8308 4.417829 31.52287 -2.458615
2012-04-12 14:18:48 51°13.639 2°55.995 17.8449 4.417932 31.524268 -2.458615
2012-04-12 14:19:48 51°13.636 2°56.016 17.8658 4.417829 31.52287 -2.458615